Home > Products > Valid Products > TAF

000
FTUS45 KPUB 171814 AAA
TAFCOS
TAF AMD
KCOS 171814Z 1718/1818 15010KT P6SM BKN020
     FM171900 16012KT P6SM SCT040 SCT200
     FM180300 12007KT P6SM SCT200
     FM180500 01006KT P6SM SCT200
     FM181500 VRB06KT P6SM FEW080 SCT150=



000
FTUS45 KPUB 171720
TAFCOS
TAF
KCOS 171720Z 1718/1818 19007KT P6SM SCT020 SCT060
     FM172000 17012KT P6SM SCT100 SCT200
     FM180300 12007KT P6SM SCT200
     FM180500 01006KT P6SM SCT200
     FM181500 VRB06KT P6SM FEW080 SCT150=



000
FTUS45 KPUB 171720
TAFALS
TAF
KALS 171720Z 1718/1818 VRB06KT P6SM SCT030 SCT200
     FM172000 17012KT P6SM FEW100 SCT200
     FM180300 20007KT P6SM SCT200
     FM181500 VRB06KT P6SM FEW080 SCT120 SCT200=



000
FTUS45 KPUB 171720
TAFPUB
TAF
KPUB 171720Z 1718/1818 17007KT P6SM SCT030
     FM172000 14008KT P6SM SCT200
     FM180000 10008KT P6SM SCT200
     FM180200 VRB05KT P6SM SCT200=



000
FTUS45 KPUB 171642 AAD
TAFPUB
TAF AMD
KPUB 171642Z 1717/1812 20007KT P6SM SCT030
     FM171800 17009KT P6SM FEW200
     FM180000 12008KT P6SM FEW200
     FM180200 VRB05KT P6SM FEW200=



000
FTUS45 KPUB 171606 AAC
TAFCOS
TAF AMD
KCOS 171606Z 1716/1812 19007KT P6SM BKN015
     FM171700 16006KT P6SM SCT040 SCT200
     FM171800 17012KT P6SM FEW200
     FM180300 15007KT P6SM FEW200
     FM180500 01006KT P6SM FEW200=



000
FTUS45 KPUB 171605 AAC
TAFPUB
TAF AMD
KPUB 171605Z 1716/1812 20007KT P6SM BKN020
     FM171730 20007KT P6SM SCT025 SCT200
     FM171800 16009KT P6SM FEW200
     FM180000 12008KT P6SM FEW200
     FM180200 VRB05KT P6SM FEW200=



000
FTUS45 KPUB 171441 AAB
TAFCOS
TAF AMD
KCOS 171441Z 1715/1812 VRB06KT P6SM BKN010
     FM171600 15006KT P6SM SCT050 SCT200
     FM171800 17012KT P6SM FEW200
     FM180300 15007KT P6SM FEW200
     FM180500 01006KT P6SM FEW200=



000
FTUS45 KPUB 171326 AAA
TAFCOS
TAF AMD
KCOS 171326Z 1713/1812 VRB06KT 3SM BR VCSH OVC002
     FM171500 VRB06KT 5SM BR OVC012
     FM171600 15006KT P6SM SCT060 SCT200
     FM171800 17012KT P6SM FEW200
     FM180300 15007KT P6SM FEW200
     FM180500 01006KT P6SM FEW200=



000
FTUS45 KPUB 171127
TAFCOS
TAF
KCOS 171127Z 1712/1812 15006KT 1/4SM FG VCSH OVC002
     FM171500 15006KT 2SM BR OVC012
     FM171600 15006KT P6SM SCT060 SCT200
     FM171800 17012KT P6SM FEW200
     FM180300 15007KT P6SM FEW200
     FM180500 01006KT P6SM FEW200=



000
FTUS45 KPUB 171127
TAFALS
TAF
KALS 171127Z 1712/1812 VRB06KT P6SM BKN025
     FM171400 VRB06KT P6SM SCT050
     FM171800 20008KT P6SM FEW200
     FM172000 25012KT P6SM FEW250
     FM180300 17007KT P6SM FEW200=



000
FTUS45 KPUB 171127
TAFPUB
TAF
KPUB 171127Z 1712/1812 24006KT P6SM OVC030
     FM171500 VRB06KT P6SM SCT040 SCT120
     FM171800 16009KT P6SM FEW200
     FM180000 12008KT P6SM FEW200
     FM180200 VRB05KT P6SM FEW200=



000
FTUS45 KPUB 171046 AAD
TAFCOS
TAF AMD
KCOS 171046Z 1711/1806 15006KT 1/4SM FG VCSH OVC002
     FM171500 15006KT P6SM SCT060 SCT200
     FM171800 17012KT P6SM FEW200
     FM180300 15007KT P6SM FEW200=



000
FTUS45 KPUB 170955 AAC
TAFCOS
TAF AMD
KCOS 170955Z 1710/1806 15006KT 1/2SM FG VCSH OVC002
     FM171500 15006KT P6SM SCT060 SCT200
     FM171800 17012KT P6SM FEW200
     FM180300 15007KT P6SM FEW200=



000
FTUS45 KPUB 170942 AAB
TAFALS
TAF AMD
KALS 170942Z 1710/1806 VRB06KT P6SM BKN025
     FM171400 VRB06KT P6SM SCT050
     FM172000 20012KT P6SM FEW200
     FM180300 17007KT P6SM FEW200=



000
FTUS45 KPUB 170941 AAC
TAFPUB
TAF AMD
KPUB 170941Z 1710/1806 29006KT P6SM OVC025
     FM171400 VRB06KT P6SM SCT040 SCT120
     FM171800 16009KT P6SM FEW200
     FM180000 12008KT P6SM FEW200=



000
FTUS45 KPUB 170915 AAB
TAFCOS
TAF AMD
KCOS 170915Z 1709/1806 15006KT 3/4SM BR VCSH OVC002
     FM171500 15006KT P6SM SCT060 SCT200
     FM171800 17012KT P6SM FEW200
     FM180300 15007KT P6SM FEW200=



000
FTUS45 KPUB 170639 AAA
TAFCOS
TAF AMD
KCOS 170639Z 1707/1806 VRB05KT 2SM -SHRASN BR BKN002
     FM171000 15006KT 2SM BR VCSH SCT002 OVC008
     FM171400 15006KT P6SM SCT060 SCT200
     FM171800 17012KT P6SM FEW200
     FM180300 15007KT P6SM FEW200=



000
FTUS45 KPUB 170634 AAA
TAFALS
TAF AMD
KALS 170634Z 1707/1806 VRB05KT P6SM VCSH OVC007
     FM170730 VRB06KT P6SM SCT010 SCT200
     FM171000 VRB06KT P6SM SCT070 SCT200
     FM172000 20012KT P6SM FEW200
     FM180300 17007KT P6SM FEW200=



000
FTUS45 KPUB 170520
TAFPUB
TAF
KPUB 170520Z 1706/1806 05006KT 6SM -SHRASN OVC035
     FM171200 VRB06KT P6SM SCT040 SCT120
     FM171800 16009KT P6SM FEW200
     FM180000 12008KT P6SM FEW200=



000
FTUS45 KPUB 170520
TAFALS
TAF
KALS 170520Z 1706/1806 14006KT 2SM -SN BR FEW008 OVC020
     FM170800 VRB05KT P6SM VCSH FEW007 BKN070
     FM171000 VRB06KT P6SM SCT070 SCT200
     FM172000 20012KT P6SM FEW200
     FM180300 17007KT P6SM FEW200=



000
FTUS45 KPUB 170520
TAFCOS
TAF
KCOS 170520Z 1706/1806 VRB05KT 3SM -SHRASN FEW008 OVC020
     FM171000 15006KT P6SM VCSH SCT020 BKN060
     FM171400 15006KT P6SM SCT060 SCT200
     FM171800 17012KT P6SM FEW200
     FM180300 15007KT P6SM FEW200=



000
FTUS45 KPUB 162320
TAFPUB
TAF
KPUB 162320Z 1700/1724 17014KT P6SM VCSH SCT050 OVC070
     FM170030 05008KT 5SM -SHRA OVC025
     FM170400 VRB05KT 4SM -SHRASN OVC015
     FM170900 VRB05KT P6SM VCSH SCT030 BKN060
     FM171200 VRB06KT P6SM FEW040 SCT150
     FM171800 16009KT P6SM SCT200=



000
FTUS45 KPUB 162320
TAFCOS
TAF
KCOS 162320Z 1700/1724 36014KT P6SM -RA FEW020 BKN045 OVC060
     FM170100 05010G20KT 2SM -SHSN BR OVC010
     FM170500 15010KT 5SM -SHSN SCT010 BKN025
     FM171000 15006KT P6SM VCSH SCT020 BKN060
     FM171300 15006KT P6SM SCT060 SCT120
     FM171800 17012KT P6SM FEW120 SCT200=



000
FTUS45 KPUB 162320
TAFALS
TAF
KALS 162320Z 1700/1724 33013KT P6SM VCSH FEW070 OVC090
     FM170100 04008KT 5SM -SHSN OVC015
      TEMPO 1702/1705 1SM -SHSN BR OVC008
     FM170600 VRB05KT P6SM VCSH FEW020 BKN040
     FM171000 VRB06KT P6SM SCT120 SCT200
     FM172000 20012KT P6SM FEW200=



000
FTUS45 KPUB 162126 AAA
TAFCOS
TAF AMD
KCOS 162126Z 1621/1718 01012G24KT P6SM VCSH SCT020 BKN040
     FM170000 05010G20KT 3SM -SN BR OVC010
     FM170500 17010KT 6SM BR SCT010 BKN025
     FM170800 VRB06KT P6SM SCT020 BKN060
     FM171300 VRB06KT P6SM SCT060 SCT120=



000
FTUS45 KPUB 162124 AAA
TAFALS
TAF AMD
KALS 162124Z 1621/1718 33012G22KT P6SM SCT080 BKN100
     FM162300 35012KT P6SM VCSH SCT050 BKN080
     FM170100 04008KT 5SM -SHSN OVC015
     FM170600 VRB05KT P6SM VCSH SCT020 BKN040
     FM171200 VRB06KT P6SM SCT030 SCT120=



000
FTUS45 KPUB 162122 AAA
TAFPUB
TAF AMD
KPUB 162122Z 1621/1718 08008G18KT P6SM VCSH SCT040 OVC080
     FM162230 06012KT 6SM -SHRA BKN040
     FM170100 05008KT 5SM -SHRA OVC025
     FM170400 VRB05KT 4SM -SHRASN BKN015
     FM170800 VRB06KT P6SM SCT030 BKN060
     FM171200 VRB06KT P6SM SCT040 SCT150=



000
FTUS45 KPUB 161732
TAFPUB
TAF
KPUB 161732Z 1618/1718 08010G20KT P6SM FEW080 BKN150
     FM162300 06012KT P6SM VCSH BKN070
     FM170100 05008KT 5SM -SHRA OVC025
     FM170400 VRB05KT 4SM -SHRASN BKN015
     FM170800 VRB06KT P6SM SCT030 BKN060
     FM171200 VRB06KT P6SM SCT040 SCT150=



000
FTUS45 KPUB 161732
TAFALS
TAF
KALS 161732Z 1618/1718 VRB06KT P6SM SCT080 BKN150
     FM162000 27012KT P6SM SCT050 BKN120
     FM170000 34012KT 6SM -SHRASN BKN040
     FM170200 04008KT 5SM -SHSN OVC015
     FM170600 VRB05KT P6SM VCSH SCT020 BKN040
     FM171200 VRB06KT P6SM SCT030 SCT120=



000
FTUS45 KPUB 161732
TAFCOS
TAF
KCOS 161732Z 1618/1718 01012G24KT P6SM SCT100 BKN200
     FM162100 12008KT P6SM VCSH SCT040 BKN070
     FM170000 14008KT 3SM -SN BR OVC010
     FM170600 17010KT 6SM BR SCT010 BKN025
     FM170900 VRB06KT P6SM SCT020 BKN060
     FM171300 VRB06KT P6SM SCT060 SCT120=



000
FTUS45 KPUB 161335 AAA
TAFCOS
TAF AMD
KCOS 161335Z 1614/1712 03012KT P6SM SCT120 BKN200
     FM161700 06006KT P6SM SCT060 BKN140
     FM162300 12008KT P6SM VCSH SCT020 OVC040
     FM170100 10008KT 3SM -SN BR OVC020
     FM170600 17007KT P6SM SCT030 BKN060=



000
FTUS45 KPUB 161157 CCA
TAFPUB
TAF COR
KPUB 161157Z 1612/1712 29008KT P6SM FEW130 SCT200
     FM161300 02012KT P6SM SCT130 BKN200
     FM162000 08012KT P6SM BKN130
     FM162300 06012KT P6SM VCSH BKN050
     FM170100 06008KT 5SM -SHRASN OVC025
     FM170700 VRB05KT P6SM SCT030 BKN060=



000
FTUS45 KPUB 161129
TAFPUB
TAF
KPUB 161129Z 1612/1712 29008KT P6SM FEW130 SCT200
     FM161600 02012KT P6SM SCT130 BKN200
     FM162000 08012KT P6SM BKN130
     FM162300 06012KT P6SM VCSH BKN050
     FM170100 06008KT 5SM -SHRASN OVC025
     FM170700 VRB05KT P6SM SCT030 BKN060=



000
FTUS45 KPUB 161129
TAFALS
TAF
KALS 161129Z 1612/1712 VRB06KT P6SM SCT200
     FM161800 29008KT P6SM SCT120 BKN200
     FM162000 30010KT P6SM SCT050 BKN120
     FM170000 34012KT P6SM VCSH BKN050
     FM170200 04008KT P6SM VCSH BKN030
      TEMPO 1702/1706 2SM -SN BR BKN020
     FM170600 VRB05KT P6SM SCT050 SCT250=



000
FTUS45 KPUB 161129
TAFCOS
TAF
KCOS 161129Z 1612/1712 32012KT P6SM SCT200
     FM161300 35008KT P6SM SCT120 SCT200
     FM161700 03012KT P6SM SCT120 BKN200
     FM162000 06006KT P6SM SCT060 BKN140
     FM162300 12008KT P6SM VCSH SCT020 OVC040
     FM170100 10008KT 3SM -SN BR OVC020
     FM170600 17007KT P6SM SCT030 BKN060=



000
FTUS45 KPUB 160532
TAFPUB
TAF
KPUB 160532Z 1606/1706 32012KT P6SM SCT200
     FM161200 01012KT P6SM FEW130 SCT200
     FM161700 06012KT P6SM SCT130 BKN200
     FM162000 06012KT P6SM BKN130
     FM162300 06012KT P6SM VCSH BKN050
     FM170100 06008KT 5SM -SHRASN OVC025=



000
FTUS45 KPUB 160532
TAFALS
TAF
KALS 160532Z 1606/1706 20011KT P6SM SCT200
     FM160900 VRB06KT P6SM SCT200
     FM161800 29008KT P6SM SCT120 BKN200
     FM162000 30010KT P6SM SCT050 BKN120
     FM162200 34012KT P6SM VCSH BKN050
     FM170200 04008KT 4SM -SN BR OVC020=



000
FTUS45 KPUB 160532
TAFCOS
TAF
KCOS 160532Z 1606/1706 VRB06KT P6SM SCT200
     FM161100 36012G22KT P6SM SCT200
     FM161700 03012KT P6SM SCT120 BKN200
     FM162000 06010KT P6SM SCT060 BKN140
     FM162300 06010KT P6SM VCSH SCT020 OVC040
     FM170100 10008KT 3SM -SN BR OVC020=



000
FTUS45 KPUB 160459 AAB
TAFPUB
TAF AMD
KPUB 160459Z 1605/1624 32013KT P6SM FEW130 BKN200
     FM161200 33009KT P6SM SCT130 BKN200
     FM161500 04012G22KT P6SM SCT130 BKN200
     FM161800 08012KT P6SM SCT100 BKN150
     FM162100 08012KT P6SM SCT050 BKN090=



000
FTUS45 KPUB 160145 AAA
TAFPUB
TAF AMD
KPUB 160145Z 1602/1624 29014KT P6SM FEW130 BKN200
     FM160500 VRB06KT P6SM FEW130 BKN200
     FM161200 33009KT P6SM SCT130 BKN200
     FM161500 04012G22KT P6SM SCT130 BKN200
     FM161800 08012KT P6SM SCT100 BKN150
     FM162100 08012KT P6SM SCT050 BKN090=



000
FTUS45 KPUB 152355 CCA
TAFALS
TAF COR
KALS 152355Z 1600/1624 26014KT P6SM SCT110 BKN200
      TEMPO 1600/1602 26014G24KT
     FM160200 24011KT P6SM SCT110 BKN200
     FM160600 VRB06KT P6SM SCT100 BKN200
     FM161900 23013KT P6SM BKN100=



000
FTUS45 KPUB 152336
TAFALS
TAF
KALS 152336Z 1600/1624 30012KT P6SM SCT110 BKN200
      TEMPO 1600/1602 29012G22KT
     FM160200 24011KT P6SM SCT110 BKN200
     FM160600 VRB06KT P6SM SCT100 BKN200
     FM161900 23013KT P6SM BKN100=



000
FTUS45 KPUB 152336
TAFPUB
TAF
KPUB 152336Z 1600/1624 22012KT P6SM FEW130 BKN200
      TEMPO 1600/1602 22012G22KT
     FM160200 29007KT P6SM FEW130 BKN200
     FM161200 33009KT P6SM SCT130 BKN200
     FM161500 04012G22KT P6SM SCT130 BKN200
     FM161800 08012KT P6SM SCT100 BKN150
     FM162100 08012KT P6SM SCT050 BKN090=



000
FTUS45 KPUB 152336
TAFCOS
TAF
KCOS 152336Z 1600/1624 19012KT P6SM SCT120 BKN200
      TEMPO 1600/1602 18012G22KT
     FM160200 VRB06KT P6SM SCT120 BKN200
     FM160800 01009KT P6SM SCT120 BKN200
     FM161100 36012G22KT P6SM SCT120 BKN200
     FM161900 02014KT P6SM SCT050 BKN080
     FM162200 04014KT P6SM VCSH SCT030 BKN050=



000
FTUS45 KPUB 152247 CCA
TAFALS
TAF COR
KALS 152247Z 1523/1618 32010G20KT P6SM SCT100 BKN200
     FM160200 20007KT P6SM SCT100 BKN150
     FM161400 17008KT P6SM BKN100=



000
FTUS45 KPUB 152243 AAB
TAFALS
TAF AMD
KALS 152243Z 1523/1618 29010G20KT P6SM SCT100 BKN200
     FM160200 20007KT P6SM SCT100 BKN150
     FM161400 17008KT P6SM BKN100=



000
FTUS45 KPUB 152224 AAA
TAFCOS
TAF AMD
KCOS 152224Z 1522/1618 17012KT P6SM SCT120 BKN200
     FM160200 36010KT P6SM SCT120 BKN150
     FM161300 02012KT P6SM SCT080 BKN120=



000
FTUS45 KPUB 152142 AAB
TAFPUB
TAF AMD
KPUB 152142Z 1522/1618 26012G22KT P6SM FEW150 BKN200
     FM160200 30008KT P6SM SCT150 BKN200
     FM161300 06007KT P6SM SCT120 BKN150=



000
FTUS45 KPUB 152140 AAA
TAFALS
TAF AMD
KALS 152140Z 1522/1618 VRB04KT P6SM FEW100 BKN200
     FM152230 26012G22KT P6SM SCT100 BKN200
     FM160200 20007KT P6SM SCT100 BKN150
     FM161400 17008KT P6SM BKN100=



000
FTUS45 KPUB 151723
TAFCOS
TAF
KCOS 151723Z 1518/1618 17012KT P6SM FEW150 BKN200
     FM152000 19012G22KT P6SM SCT120 BKN200
     FM160200 36010KT P6SM SCT120 BKN150
     FM161300 02012KT P6SM SCT080 BKN120=



000
FTUS45 KPUB 151723
TAFPUB
TAF
KPUB 151723Z 1518/1618 VRB06KT P6SM SCT200
     FM152000 18012KT P6SM FEW150 BKN200
     FM160200 30008KT P6SM SCT150 BKN200
     FM161300 06007KT P6SM SCT120 BKN150=



000
FTUS45 KPUB 151723
TAFALS
TAF
KALS 151723Z 1518/1618 VRB04KT P6SM FEW200
     FM151900 24012G22KT P6SM FEW150 SCT200
     FM152200 26015G25KT P6SM SCT100 BKN200
     FM160200 20007KT P6SM SCT100 BKN150
     FM161400 17008KT P6SM BKN100=



000
FTUS45 KPUB 151141
TAFCOS
TAF
KCOS 151141Z 1512/1612 VRB05KT P6SM FEW010
     FM151600 15007KT P6SM SCT150
     FM151800 17012KT P6SM SCT150
     FM152000 17012G22KT P6SM BKN150
     FM160300 35010KT P6SM SCT150=



000
FTUS45 KPUB 151141
TAFALS
TAF
KALS 151141Z 1512/1612 VRB04KT P6SM FEW010
     FM151600 VRB06KT P6SM SCT150
     FM151900 22012G22KT P6SM SCT150
     FM152200 24015G25KT P6SM BKN150
     FM160400 VRB06KT P6SM SCT150=



000
FTUS45 KPUB 151141
TAFPUB
TAF
KPUB 151141Z 1512/1612 VRB04KT P6SM FEW010
     FM151600 VRB06KT P6SM SCT170
     FM152000 22012KT P6SM BKN170
     FM160200 30008KT P6SM SCT170=



000
FTUS45 KPUB 150531
TAFPUB
TAF
KPUB 150531Z 1506/1606 VRB05KT P6SM SKC
     FM151000 VRB04KT P6SM SCT010
     FM151600 VRB05KT P6SM SCT200
     FM152000 20012KT P6SM BKN200
     FM160200 27007KT P6SM SCT200=



000
FTUS45 KPUB 150531
TAFCOS
TAF
KCOS 150531Z 1506/1606 16006KT P6SM SKC
     FM151000 VRB05KT P6SM SCT010
     FM151600 15007KT P6SM SCT200
     FM151800 17012KT P6SM SCT200
     FM152000 17012G22KT P6SM BKN200
     FM160200 20008KT P6SM SCT200=



000
FTUS45 KPUB 150531
TAFALS
TAF
KALS 150531Z 1506/1606 02010KT P6SM SKC
     FM151000 VRB05KT P6SM SCT010
     FM151600 VRB06KT P6SM SCT200
     FM151800 22012G22KT P6SM SCT200
     FM152100 23015G25KT P6SM SCT150 BKN200
     FM160400 23008KT P6SM SCT200=



000
FTUS45 KPUB 142356 CCA
TAFCOS
TAF COR
KCOS 142356Z 1500/1524 17008KT P6SM SCT040
     FM150300 VRB05KT P6SM SKC
     FM151700 19012KT P6SM SCT200
     FM152000 21012G22KT P6SM SCT200=



000
FTUS45 KPUB 142335
TAFALS
TAF
KALS 142335Z 1500/1524 VRB06KT P6SM SKC
     FM151900 22013G23KT P6SM SCT150 SCT200=



000
FTUS45 KPUB 142335
TAFCOS
TAF
KCOS 142335Z 1500/1524 19008KT P6SM SCT040
     FM150300 VRB05KT P6SM SKC
     FM151700 19012KT P6SM SCT200
     FM152000 21012G22KT P6SM SCT200=



000
FTUS45 KPUB 142335
TAFPUB
TAF
KPUB 142335Z 1500/1524 VRB06KT P6SM SCT040
     FM151900 19012KT P6SM SCT200=



    US Dept of Commerce
    National Oceanic and Atmospheric Administration
    National Weather Service
    1325 East West Highway
    Silver Spring, MD 20910
    Page Author: NWS Internet Services Team
Disclaimer
Information Quality
Credits
Glossary
Privacy Policy
Freedom of Information Act (FOIA)
About Us
Career Opportunities